createdAt,value
2022-10-22T00:01:01.824Z,74.57
2022-10-22T00:03:28.345Z,74.51
2022-10-22T00:05:54.878Z,75.12
2022-10-22T00:08:21.497Z,75.08
2022-10-22T00:10:48.116Z,75.07
2022-10-22T00:13:15.027Z,74.57
2022-10-22T00:15:41.539Z,74.71
2022-10-22T00:18:08.096Z,74.31
2022-10-22T00:20:35.182Z,74.45
2022-10-22T00:23:01.701Z,74.13
2022-10-22T00:25:28.339Z,74.65
2022-10-22T00:27:54.896Z,74.68
2022-10-22T00:30:21.441Z,74.92
2022-10-22T00:32:47.928Z,75.69
2022-10-22T00:35:14.574Z,75.70
2022-10-22T00:37:41.070Z,76.09
2022-10-22T00:40:08.532Z,76.00
2022-10-22T00:42:35.422Z,75.63
2022-10-22T00:45:09.362Z,76.34
2022-10-22T00:47:41.995Z,76.94
2022-10-22T00:50:14.158Z,77.84
2022-10-22T00:52:41.088Z,79.64
2022-10-22T00:55:08.587Z,80.88
2022-10-22T00:57:36.264Z,81.73
2022-10-22T01:00:03.857Z,81.89
2022-10-22T01:02:30.437Z,83.41
2022-10-22T01:04:56.978Z,83.64
2022-10-22T01:07:24.544Z,83.78
2022-10-22T01:09:51.015Z,82.98
2022-10-22T01:12:43.057Z,84.66
2022-10-22T01:15:20.068Z,85.43
2022-10-22T01:17:56.252Z,85.19
2022-10-22T01:20:34.301Z,86.24
2022-10-22T01:23:35.701Z,86.05
2022-10-22T01:26:25.057Z,85.40
2022-10-22T01:29:03.606Z,85.99
2022-10-22T01:31:32.560Z,85.95
2022-10-22T01:34:01.225Z,85.79
2022-10-22T01:36:29.759Z,85.67
2022-10-22T01:38:56.816Z,85.73
2022-10-22T01:41:23.601Z,85.29
2022-10-22T01:43:50.116Z,85.19
2022-10-22T01:46:22.814Z,85.07
2022-10-22T01:49:12.695Z,85.06
2022-10-22T01:51:55.468Z,84.16
2022-10-22T01:54:27.789Z,84.13
2022-10-22T01:57:36.729Z,83.62
2022-10-22T02:00:09.585Z,83.62
2022-10-22T02:02:40.193Z,82.85
2022-10-22T02:05:36.264Z,83.34
2022-10-22T02:08:08.914Z,83.87
2022-10-22T02:10:39.547Z,83.99
2022-10-22T02:13:12.348Z,83.98
2022-10-22T02:15:40.846Z,83.82
2022-10-22T02:18:09.656Z,83.57
2022-10-22T02:20:38.748Z,83.96
2022-10-22T02:23:05.638Z,84.63
2022-10-22T02:25:36.210Z,84.19
2022-10-22T02:28:16.772Z,84.84
2022-10-22T02:30:47.402Z,85.53
2022-10-22T02:33:22.468Z,87.51
2022-10-22T02:35:51.777Z,89.23
2022-10-22T02:38:19.195Z,89.96
2022-10-22T02:40:46.552Z,92.99
2022-10-22T02:43:13.248Z,93.74
2022-10-22T02:45:40.072Z,95.04
2022-10-22T02:48:06.755Z,96.27
2022-10-22T02:50:33.281Z,96.28
2022-10-22T02:52:59.810Z,96.46
2022-10-22T02:55:26.376Z,98.02
2022-10-22T02:57:52.866Z,98.24
2022-10-22T03:00:19.395Z,99.05
2022-10-22T03:02:45.959Z,99.21
2022-10-22T03:05:12.498Z,98.77
2022-10-22T03:07:39.541Z,100.00
2022-10-22T03:10:07.118Z,100.00
2022-10-22T03:12:33.768Z,100.00
2022-10-22T03:15:00.245Z,100.00
2022-10-22T03:17:26.743Z,100.00
2022-10-22T03:19:53.245Z,100.00
2022-10-22T03:22:27.705Z,100.00
2022-10-22T03:24:58.606Z,100.00
2022-10-22T03:27:28.367Z,100.00
2022-10-22T03:29:56.453Z,100.00
2022-10-22T03:32:22.944Z,100.00
2022-10-22T03:34:49.468Z,100.00
2022-10-22T03:37:16.752Z,100.00
2022-10-22T03:39:43.318Z,100.00
2022-10-22T03:42:10.145Z,100.00
2022-10-22T03:44:40.335Z,100.00
2022-10-22T03:47:06.927Z,100.00
2022-10-22T03:49:33.539Z,100.00
2022-10-22T03:52:09.108Z,100.00
2022-10-22T03:54:36.423Z,100.00
2022-10-22T03:57:05.043Z,100.00
2022-10-22T03:59:38.485Z,100.00
2022-10-22T04:02:05.163Z,100.00
2022-10-22T04:04:31.897Z,100.00
2022-10-22T04:06:58.419Z,100.00
2022-10-22T04:09:24.964Z,100.00
2022-10-22T04:11:51.477Z,100.00
2022-10-22T04:14:17.992Z,100.00
2022-10-22T04:16:44.478Z,100.00
2022-10-22T04:19:10.972Z,100.00
2022-10-22T04:21:37.542Z,100.00
2022-10-22T04:24:04.330Z,100.00
2022-10-22T04:26:30.821Z,100.00
2022-10-22T04:28:57.342Z,100.00
2022-10-22T04:31:25.573Z,100.00
2022-10-22T04:33:57.160Z,100.00
2022-10-22T04:36:24.831Z,100.00
2022-10-22T04:38:57.918Z,100.00
2022-10-22T04:41:27.639Z,100.00
2022-10-22T04:43:55.901Z,100.00
2022-10-22T04:46:23.618Z,100.00
2022-10-22T04:48:51.609Z,100.00
2022-10-22T04:51:20.430Z,100.00
2022-10-22T04:53:47.316Z,100.00
2022-10-22T04:56:20.609Z,100.00
2022-10-22T04:58:52.353Z,100.00
2022-10-22T05:01:24.559Z,100.00
2022-10-22T05:03:53.160Z,100.00
2022-10-22T05:06:23.389Z,100.00
2022-10-22T05:08:56.310Z,100.00
2022-10-22T05:11:27.853Z,100.00
2022-10-22T05:13:58.979Z,100.00
2022-10-22T05:16:25.999Z,100.00
2022-10-22T05:18:53.287Z,100.00
2022-10-22T05:21:21.364Z,100.00
2022-10-22T05:23:49.611Z,100.00
2022-10-22T05:26:19.487Z,100.00
2022-10-22T05:28:47.274Z,100.00
2022-10-22T05:31:14.912Z,100.00
2022-10-22T05:33:42.273Z,100.00
2022-10-22T05:36:13.331Z,100.00
2022-10-22T05:38:39.896Z,100.00
2022-10-22T05:41:07.829Z,100.00
2022-10-22T05:43:35.137Z,100.00
2022-10-22T05:46:08.171Z,100.00
2022-10-22T05:48:35.071Z,100.00
2022-10-22T05:51:05.386Z,100.00
2022-10-22T05:53:33.549Z,100.00
2022-10-22T05:56:04.964Z,100.00
2022-10-22T05:58:31.624Z,100.00
2022-10-22T06:01:03.328Z,100.00
2022-10-22T06:03:29.949Z,100.00
2022-10-22T06:05:56.441Z,100.00
2022-10-22T06:08:22.973Z,100.00
2022-10-22T06:10:49.610Z,100.00
2022-10-22T06:13:16.096Z,100.00
2022-10-22T06:15:43.460Z,100.00
2022-10-22T06:18:10.860Z,100.00
2022-10-22T06:20:37.381Z,100.00
2022-10-22T06:23:03.941Z,100.00
2022-10-22T06:25:30.510Z,100.00
2022-10-22T06:27:57.073Z,100.00
2022-10-22T06:30:23.632Z,100.00
2022-10-22T06:32:50.185Z,100.00
2022-10-22T06:35:16.839Z,100.00
2022-10-22T06:37:43.560Z,100.00
2022-10-22T06:40:11.011Z,100.00
2022-10-22T06:42:37.672Z,100.00
2022-10-22T06:45:06.477Z,100.00
2022-10-22T06:47:33.501Z,100.00
2022-10-22T06:50:00.056Z,99.61
2022-10-22T06:52:26.571Z,99.60
2022-10-22T06:54:53.030Z,99.41
2022-10-22T06:57:19.535Z,98.32
2022-10-22T06:59:46.560Z,97.96
2022-10-22T07:02:13.309Z,97.65
2022-10-22T07:04:39.809Z,97.26
2022-10-22T07:07:06.343Z,98.04
2022-10-22T07:09:32.844Z,97.74
2022-10-22T07:11:59.488Z,97.40
2022-10-22T07:14:26.090Z,97.05
2022-10-22T07:16:52.606Z,96.88
2022-10-22T07:19:19.191Z,96.49
2022-10-22T07:21:45.793Z,95.71
2022-10-22T07:24:12.495Z,94.17
2022-10-22T07:26:39.564Z,92.11
2022-10-22T07:29:06.140Z,91.58
2022-10-22T07:31:32.821Z,91.63
2022-10-22T07:33:59.489Z,91.96
2022-10-22T07:36:26.435Z,91.73
2022-10-22T07:38:58.837Z,90.90
2022-10-22T07:41:26.757Z,90.29
2022-10-22T07:43:53.329Z,89.22
2022-10-22T07:46:20.614Z,88.04
2022-10-22T07:48:47.562Z,86.12
2022-10-22T07:51:14.173Z,84.42
2022-10-22T07:53:40.751Z,84.83
2022-10-22T07:56:08.041Z,85.01
2022-10-22T07:58:35.169Z,85.69
2022-10-22T08:01:03.074Z,85.59
2022-10-22T08:03:29.856Z,83.62
2022-10-22T08:05:56.742Z,81.25
2022-10-22T08:08:25.949Z,75.57
2022-10-22T08:10:58.647Z,73.38
2022-10-22T08:13:26.359Z,72.89
2022-10-22T08:15:56.550Z,75.04
2022-10-22T08:18:24.276Z,69.86
2022-10-22T08:20:51.802Z,71.77
2022-10-22T08:23:18.595Z,72.18
2022-10-22T08:25:45.731Z,71.43
2022-10-22T08:28:12.303Z,71.52
2022-10-22T08:30:40.204Z,71.00
2022-10-22T08:33:06.776Z,73.19
2022-10-22T08:35:33.385Z,73.22
2022-10-22T08:38:00.719Z,73.17
2022-10-22T08:40:40.086Z,74.64
2022-10-22T08:43:21.804Z,74.32
2022-10-22T08:46:06.910Z,74.55
2022-10-22T08:48:58.528Z,74.04
2022-10-22T08:51:28.364Z,74.46
2022-10-22T08:54:28.116Z,72.92
2022-10-22T08:57:09.882Z,75.44
2022-10-22T08:59:58.258Z,73.59
2022-10-22T09:02:38.363Z,74.63
2022-10-22T09:05:22.922Z,76.13
2022-10-22T09:07:50.478Z,78.16
2022-10-22T09:10:21.751Z,77.98
2022-10-22T09:12:48.798Z,77.96
2022-10-22T09:15:16.936Z,78.55
2022-10-22T09:18:11.600Z,78.46
2022-10-22T09:20:48.324Z,78.74
2022-10-22T09:23:39.738Z,78.23
2022-10-22T09:26:15.219Z,79.15
2022-10-22T09:28:42.645Z,77.73
2022-10-22T09:31:12.161Z,74.85
2022-10-22T09:33:40.747Z,73.80
2022-10-22T09:36:08.013Z,68.36
2022-10-22T09:38:40.226Z,65.00
2022-10-22T09:41:06.859Z,64.66
2022-10-22T09:43:35.011Z,68.26
2022-10-22T09:46:07.401Z,68.62
2022-10-22T09:48:35.287Z,67.68
2022-10-22T09:51:24.716Z,70.46
2022-10-22T09:54:01.654Z,69.77
2022-10-22T09:56:38.744Z,72.88
2022-10-22T09:59:06.631Z,68.28
2022-10-22T10:01:40.923Z,68.26
2022-10-22T10:04:10.553Z,63.88
2022-10-22T10:06:40.410Z,67.75
2022-10-22T10:09:19.346Z,66.94
2022-10-22T10:11:53.145Z,67.00
2022-10-22T10:14:28.368Z,66.60
2022-10-22T10:17:05.073Z,65.71
2022-10-22T10:20:03.738Z,66.02
2022-10-22T10:22:55.074Z,62.60
2022-10-22T10:25:45.340Z,61.71
2022-10-22T10:28:20.787Z,62.21
2022-10-22T10:31:04.340Z,66.75
2022-10-22T10:33:51.718Z,63.36
2022-10-22T10:36:20.990Z,65.89
2022-10-22T10:39:02.438Z,63.15
2022-10-22T10:41:38.804Z,67.98
2022-10-22T10:44:29.567Z,64.54
2022-10-22T10:47:28.451Z,66.26
2022-10-22T10:50:18.084Z,66.67
2022-10-22T10:53:15.626Z,68.67
2022-10-22T10:55:52.445Z,65.62
2022-10-22T10:58:34.332Z,64.49
2022-10-22T11:01:20.386Z,65.33
2022-10-22T11:04:03.594Z,64.55
2022-10-22T11:06:33.221Z,64.87
2022-10-22T11:09:07.030Z,64.24
2022-10-22T11:11:38.613Z,63.16
2022-10-22T11:14:38.369Z,63.25
2022-10-22T11:17:14.188Z,61.64
2022-10-22T11:19:53.771Z,64.49
2022-10-22T11:22:27.098Z,63.34
2022-10-22T11:25:01.282Z,62.38
2022-10-22T11:27:41.020Z,62.17
2022-10-22T11:30:17.305Z,61.66
2022-10-22T11:32:48.969Z,66.49
2022-10-22T11:35:25.977Z,62.68
2022-10-22T11:37:55.075Z,62.72
2022-10-22T11:40:29.430Z,65.50
2022-10-22T11:43:05.256Z,61.86
2022-10-22T11:45:36.326Z,61.03
2022-10-22T11:48:16.749Z,61.92
2022-10-22T11:51:01.812Z,64.25
2022-10-22T11:53:38.840Z,62.32
2022-10-22T11:56:09.893Z,63.43
2022-10-22T11:58:50.715Z,63.94
2022-10-22T12:01:29.383Z,63.31
2022-10-22T12:03:58.950Z,64.25
2022-10-22T12:06:27.783Z,64.75
2022-10-22T12:08:54.634Z,67.31
2022-10-22T12:11:40.113Z,66.37
2022-10-22T12:14:30.176Z,66.97
2022-10-22T12:17:12.740Z,66.07
2022-10-22T12:19:45.603Z,67.50
2022-10-22T12:22:18.982Z,69.06
2022-10-22T12:24:53.991Z,67.94
2022-10-22T12:27:54.851Z,69.18
2022-10-22T12:30:25.323Z,69.48
2022-10-22T12:32:56.694Z,70.22
2022-10-22T12:35:26.503Z,71.28
2022-10-22T12:37:56.494Z,77.30
2022-10-22T12:40:26.389Z,80.11
2022-10-22T12:43:01.212Z,81.90
2022-10-22T12:45:30.734Z,82.02
2022-10-22T12:48:00.884Z,83.13
2022-10-22T12:50:40.171Z,85.71
2022-10-22T12:53:13.635Z,90.37
2022-10-22T12:55:41.290Z,87.64
2022-10-22T12:58:08.253Z,88.48
2022-10-22T13:00:36.277Z,90.67
2022-10-22T13:03:06.484Z,91.72
2022-10-22T13:05:38.877Z,89.96
2022-10-22T13:08:17.121Z,90.34
2022-10-22T13:10:51.178Z,90.44
2022-10-22T13:13:36.367Z,89.47
2022-10-22T13:16:24.364Z,91.14
2022-10-22T13:18:52.724Z,89.94
2022-10-22T13:21:35.360Z,93.34
2022-10-22T13:24:18.834Z,90.62
2022-10-22T13:26:50.142Z,86.11
2022-10-22T13:29:19.415Z,89.30
2022-10-22T13:31:53.867Z,89.56
2022-10-22T13:34:24.103Z,89.79
2022-10-22T13:36:51.225Z,88.73
2022-10-22T13:39:23.288Z,90.13
2022-10-22T13:41:50.778Z,94.04
2022-10-22T13:44:20.295Z,94.63
2022-10-22T13:46:48.433Z,94.38
2022-10-22T13:49:20.906Z,96.81
2022-10-22T13:51:47.593Z,97.30
2022-10-22T13:54:17.834Z,99.96
2022-10-22T13:56:44.444Z,99.88
2022-10-22T13:59:11.109Z,100.00
2022-10-22T14:01:38.813Z,97.02
2022-10-22T14:04:07.991Z,97.91
2022-10-22T14:09:11.929Z,100.00
2022-10-22T14:11:38.513Z,100.00
2022-10-22T14:14:08.672Z,99.50
2022-10-22T14:16:37.470Z,100.00
2022-10-22T14:19:07.366Z,100.00
2022-10-22T14:21:37.279Z,100.00
2022-10-22T14:24:07.206Z,98.75
2022-10-22T14:26:35.962Z,97.62
2022-10-22T14:29:11.086Z,96.46
2022-10-22T14:31:43.671Z,95.38
2022-10-22T14:34:12.297Z,95.24
2022-10-22T14:36:39.099Z,94.88
2022-10-22T14:39:05.848Z,92.05
2022-10-22T14:41:32.399Z,92.07
2022-10-22T14:43:59.851Z,90.38
2022-10-22T14:46:26.768Z,91.27
2022-10-22T14:48:53.287Z,90.80
2022-10-22T14:51:21.294Z,90.60
2022-10-22T14:53:48.101Z,89.74
2022-10-22T14:56:18.402Z,89.19
2022-10-22T14:58:45.622Z,87.49
2022-10-22T15:01:12.383Z,88.23
2022-10-22T15:03:38.899Z,87.44
2022-10-22T15:06:06.072Z,88.54
2022-10-22T15:08:33.100Z,88.81
2022-10-22T15:11:05.529Z,88.05
2022-10-22T15:13:33.280Z,89.19
2022-10-22T15:16:00.431Z,89.55
2022-10-22T15:18:28.343Z,88.60
2022-10-22T15:21:00.375Z,90.80
2022-10-22T15:23:27.331Z,89.26
2022-10-22T15:25:54.430Z,89.80
2022-10-22T15:28:21.093Z,89.79
2022-10-22T15:30:56.275Z,90.08
2022-10-22T15:33:23.193Z,89.17
2022-10-22T15:35:50.289Z,89.72
2022-10-22T15:38:17.785Z,91.39
2022-10-22T15:40:44.537Z,91.03
2022-10-22T15:43:11.507Z,90.88
2022-10-22T15:45:38.504Z,90.24
2022-10-22T15:48:05.536Z,90.47
2022-10-22T15:50:32.293Z,92.87
2022-10-22T15:52:59.028Z,91.46
2022-10-22T15:55:25.691Z,92.63
2022-10-22T15:57:57.126Z,94.97
2022-10-22T16:00:25.900Z,93.33
2022-10-22T16:02:54.275Z,92.97
2022-10-22T16:05:20.936Z,94.65
2022-10-22T16:07:47.571Z,94.54
2022-10-22T16:10:14.577Z,95.76
2022-10-22T16:12:41.519Z,94.62
2022-10-22T16:15:09.640Z,96.11
2022-10-22T16:17:36.196Z,97.03
2022-10-22T16:20:03.179Z,98.21
2022-10-22T16:22:29.742Z,97.80
2022-10-22T16:24:56.286Z,97.11
2022-10-22T16:27:22.833Z,98.58
2022-10-22T16:29:49.375Z,99.37
2022-10-22T16:32:16.782Z,99.02
2022-10-22T16:34:43.320Z,99.81
2022-10-22T16:37:10.355Z,100.00
2022-10-22T16:39:37.576Z,100.00
2022-10-22T16:42:04.493Z,100.00
2022-10-22T16:44:31.025Z,100.00
2022-10-22T16:46:57.546Z,100.00
2022-10-22T16:49:24.155Z,100.00
2022-10-22T16:51:50.723Z,100.00
2022-10-22T16:54:17.674Z,100.00
2022-10-22T16:56:44.251Z,100.00
2022-10-22T16:59:10.817Z,100.00
2022-10-22T17:01:40.982Z,100.00
2022-10-22T17:04:08.497Z,100.00
2022-10-22T17:06:35.387Z,100.00
2022-10-22T17:09:01.997Z,100.00
2022-10-22T17:11:34.668Z,100.00
2022-10-22T17:14:02.112Z,100.00
2022-10-22T17:16:28.752Z,100.00
2022-10-22T17:18:55.723Z,100.00
2022-10-22T17:21:23.433Z,100.00
2022-10-22T17:23:54.490Z,100.00
2022-10-22T17:26:22.831Z,100.00
2022-10-22T17:28:53.494Z,100.00
2022-10-22T17:31:25.967Z,100.00
2022-10-22T17:33:54.953Z,100.00
2022-10-22T17:36:22.980Z,100.00
2022-10-22T17:38:52.454Z,100.00
2022-10-22T17:41:21.893Z,100.00
2022-10-22T17:43:48.809Z,100.00
2022-10-22T17:46:21.398Z,100.00
2022-10-22T17:48:53.279Z,100.00
2022-10-22T17:51:20.668Z,100.00
2022-10-22T17:53:47.707Z,100.00
2022-10-22T17:56:16.206Z,100.00
2022-10-22T17:58:42.772Z,100.00
2022-10-22T18:01:20.588Z,100.00
2022-10-22T18:03:47.560Z,100.00
2022-10-22T18:06:14.448Z,100.00
2022-10-22T18:08:41.413Z,100.00
2022-10-22T18:11:14.580Z,100.00
2022-10-22T18:13:41.310Z,100.00
2022-10-22T18:16:08.063Z,100.00
2022-10-22T18:18:35.773Z,100.00
2022-10-22T18:21:02.651Z,100.00
2022-10-22T18:23:31.765Z,100.00
2022-10-22T18:25:58.298Z,100.00
2022-10-22T18:28:25.100Z,100.00
2022-10-22T18:30:52.089Z,100.00
2022-10-22T18:33:19.590Z,100.00
2022-10-22T18:35:46.744Z,100.00
2022-10-22T18:38:13.955Z,100.00
2022-10-22T18:40:46.750Z,100.00
2022-10-22T18:43:13.591Z,100.00
2022-10-22T18:45:48.454Z,100.00
2022-10-22T18:48:17.616Z,100.00
2022-10-22T18:50:45.649Z,100.00
2022-10-22T18:53:13.935Z,100.00
2022-10-22T18:55:40.863Z,100.00
2022-10-22T18:58:07.605Z,100.00
2022-10-22T19:00:38.593Z,100.00
2022-10-22T19:03:05.367Z,100.00
2022-10-22T19:05:32.176Z,100.00
2022-10-22T19:07:58.793Z,100.00
2022-10-22T19:10:25.404Z,100.00
2022-10-22T19:12:52.108Z,100.00
2022-10-22T19:15:18.736Z,100.00
2022-10-22T19:17:45.773Z,100.00
2022-10-22T19:20:13.151Z,100.00
2022-10-22T19:22:39.762Z,100.00
2022-10-22T19:25:09.700Z,100.00
2022-10-22T19:27:39.681Z,100.00
2022-10-22T19:30:07.179Z,100.00
2022-10-22T19:32:33.902Z,100.00
2022-10-22T19:35:00.501Z,100.00
2022-10-22T19:37:27.032Z,100.00
2022-10-22T19:39:54.779Z,100.00
2022-10-22T19:42:21.331Z,100.00
2022-10-22T19:44:47.827Z,100.00
2022-10-22T19:47:15.992Z,100.00
2022-10-22T19:49:42.653Z,100.00
2022-10-22T19:52:09.279Z,100.00
2022-10-22T19:54:40.621Z,100.00
2022-10-22T19:57:07.936Z,100.00
2022-10-22T19:59:34.528Z,100.00
2022-10-22T20:02:01.166Z,100.00
2022-10-22T20:04:28.099Z,100.00
2022-10-22T20:06:55.160Z,100.00
2022-10-22T20:09:21.852Z,100.00
2022-10-22T20:11:48.359Z,100.00
2022-10-22T20:14:15.184Z,100.00
2022-10-22T20:16:41.910Z,100.00
2022-10-22T20:19:08.598Z,100.00
2022-10-22T20:21:35.590Z,100.00
2022-10-22T20:24:02.108Z,100.00
2022-10-22T20:26:28.883Z,100.00
2022-10-22T20:28:57.357Z,100.00
2022-10-22T20:31:26.696Z,100.00
2022-10-22T20:33:57.120Z,100.00
2022-10-22T20:36:24.761Z,100.00
2022-10-22T20:38:51.939Z,100.00
2022-10-22T20:41:23.077Z,100.00
2022-10-22T20:43:51.529Z,100.00
2022-10-22T20:46:26.867Z,100.00
2022-10-22T20:48:56.507Z,100.00
2022-10-22T20:51:23.196Z,100.00
2022-10-22T20:53:50.780Z,100.00
2022-10-22T20:56:18.361Z,100.00
2022-10-22T20:58:48.608Z,100.00
2022-10-22T21:01:24.310Z,100.00
2022-10-22T21:03:52.447Z,100.00
2022-10-22T21:06:23.168Z,100.00
2022-10-22T21:08:50.688Z,100.00
2022-10-22T21:11:18.248Z,100.00
2022-10-22T21:13:44.744Z,100.00
2022-10-22T21:16:13.634Z,100.00
2022-10-22T21:18:40.238Z,100.00
2022-10-22T21:21:08.053Z,100.00
2022-10-22T21:23:36.184Z,100.00
2022-10-22T21:26:02.991Z,100.00
2022-10-22T21:30:57.239Z,99.46
2022-10-22T21:33:23.843Z,99.12
2022-10-22T21:35:54.899Z,98.90
2022-10-22T21:38:23.038Z,98.63
2022-10-22T21:40:50.260Z,98.48
2022-10-22T21:43:17.667Z,98.54
2022-10-22T21:45:44.687Z,97.68
2022-10-22T21:48:15.189Z,97.46
2022-10-22T21:50:43.696Z,97.50
2022-10-22T21:53:12.069Z,97.88
2022-10-22T21:55:40.367Z,97.56
2022-10-22T21:58:07.735Z,97.24
2022-10-22T22:00:35.238Z,96.55
2022-10-22T22:03:01.989Z,97.17
2022-10-22T22:05:29.574Z,97.54
2022-10-22T22:07:56.225Z,96.50
2022-10-22T22:10:23.193Z,95.71
2022-10-22T22:12:52.211Z,95.73
2022-10-22T22:15:21.875Z,93.75
2022-10-22T22:17:48.398Z,93.25
2022-10-22T22:20:15.103Z,91.58
2022-10-22T22:22:42.084Z,90.44
2022-10-22T22:25:08.971Z,89.75
2022-10-22T22:27:35.512Z,89.62
2022-10-22T22:30:02.089Z,89.35
2022-10-22T22:32:28.611Z,88.58
2022-10-22T22:34:55.127Z,88.27
2022-10-22T22:37:21.678Z,87.35
2022-10-22T22:39:48.191Z,88.56
2022-10-22T22:42:14.702Z,90.02
2022-10-22T22:44:41.227Z,90.69
2022-10-22T22:47:07.809Z,90.89
2022-10-22T22:49:35.606Z,91.07
2022-10-22T22:52:02.167Z,91.61
2022-10-22T22:54:28.666Z,92.08
2022-10-22T22:56:55.262Z,91.06
2022-10-22T22:59:22.228Z,91.00
2022-10-22T23:01:50.093Z,90.36
2022-10-22T23:04:22.770Z,90.05
2022-10-22T23:06:50.608Z,89.26
2022-10-22T23:11:50.752Z,85.78
2022-10-22T23:14:19.133Z,84.49
2022-10-22T23:16:48.812Z,83.57
2022-10-22T23:19:17.227Z,83.57
2022-10-22T23:21:54.883Z,82.35
2022-10-22T23:24:24.757Z,82.32
2022-10-22T23:26:52.965Z,82.80
2022-10-22T23:29:22.609Z,83.05
2022-10-22T23:31:49.954Z,82.78
2022-10-22T23:34:21.934Z,83.00
2022-10-22T23:36:49.433Z,83.74
2022-10-22T23:39:20.244Z,85.17
2022-10-22T23:41:47.139Z,84.60
2022-10-22T23:44:13.965Z,85.97
2022-10-22T23:46:40.967Z,86.79
2022-10-22T23:49:09.389Z,88.43
2022-10-22T23:51:36.262Z,89.36
2022-10-22T23:54:05.659Z,90.29
2022-10-22T23:56:32.655Z,88.08
2022-10-22T23:58:59.518Z,88.22
